Aviation Digital Data Service (ADDS)

Output produced by METARs form (1050 UTC 17 June 2019)
found at http://www.aviationweather.gov/metar/data/
 
Forecast for: EHLW (LEEUWARDEN RNLAF, NL)
Text: TAF EHLW 170808Z 1709/1721 20007KT 9999 SCT030
Forecast period: 0900 to 2100 UTC 17 June 2019
Forecast type: FROM: standard forecast or significant change
Winds: from the SSW (200 degrees) at 8 MPH (7 knots; 3.6 m/s)
Visibility: 6 or more miles 10+ km)
Ceiling: at least 12,000 feet AGL
Clouds: scattered clouds at 3000 feet AGL
Weather: no significant weather forecast for this period
Text: BECMG 1709/1711 22010KT
Forecast period: 0900 to 1500 UTC 17 June 2019
Forecast type: BECOMING: Conditions expected to become as follows by 1100 UTC 17 June 2019
Winds: from the SW (220 degrees) at 12 MPH (10 knots; 5.1 m/s)
Visibility: 6 or more miles 10+ km)
Ceiling: at least 12,000 feet AGL
Clouds: scattered clouds at 3000 feet AGL
Weather: no significant weather forecast for this period
Text: BECMG 1715/1717 VRB02KT
Forecast period: 1500 to 2100 UTC 17 June 2019
Forecast type: BECOMING: Conditions expected to become as follows by 1700 UTC 17 June 2019
Winds: variable direction winds at 2 MPH (2 knots; 1.0 m/s)
Visibility: 6 or more miles 10+ km)
Ceiling: at least 12,000 feet AGL
Clouds: scattered clouds at 3000 feet AGL
Weather: no significant weather forecast for this period